Time;durP1;ratioP1;P1;durP2;ratioP2;P2;SDS_P1;SDS_P2;PMS_P1;PMS_P2;Temp;Humidity;BMP_temperature;BMP_pressure;BME280_temperature;BME280_humidity;BME280_pressure;Samples;Min_cycle;Max_cycle;Signal;HPM_P1;HPM_P2
2023/07/12 00:01:14;;;;;;;9.35;2.65;;;;;;;;;;4961115;28;20034;-85
2023/07/12 00:03:43;;;;;;;5.32;2.50;;;;;;;;;;4978953;28;20027;-86
2023/07/12 00:06:17;;;;;;;6.57;3.13;;;;;;;;;;4944475;28;20518;-85
2023/07/12 00:09:01;;;;;;;6.03;2.78;;;;;;;;;;4970333;28;20026;-86
2023/07/12 00:11:29;;;;;;;7.78;3.30;;;;;;;;;;4943126;28;20031;-85
2023/07/12 00:13:58;;;;;;;6.38;2.95;;;;;;;;;;4957648;28;20046;-85
2023/07/12 00:16:28;;;;;;;3.47;2.28;;;;;;;;;;4956780;28;20035;-86
2023/07/12 00:18:58;;;;;;;9.68;3.20;;;;;;;;;;4973469;28;20494;-85
2023/07/12 00:21:26;;;;;;;6.22;2.90;;;;;;;;;;4975971;28;20023;-86
2023/07/12 00:23:58;;;;;;;8.27;3.65;;;;;;;;;;4960126;28;20159;-87
2023/07/12 00:26:26;;;;;;;6.07;2.72;;;;;;;;;;4963706;28;20043;-86
2023/07/12 00:28:53;;;;;;;9.15;2.90;;;;;;;;;;4974665;28;20026;-86
2023/07/12 00:31:23;;;;;;;4.47;2.83;;;;;;;;;;4970123;28;20035;-86
2023/07/12 00:34:02;;;;;;;5.15;2.63;;;;;;;;;;4955563;28;20030;-86
2023/07/12 00:36:29;;;;;;;6.22;2.95;;;;;;;;;;4958883;28;20075;-87
2023/07/12 00:38:59;;;;;;;4.45;2.33;;;;;;;;;;4959970;28;20027;-86
2023/07/12 00:41:44;;;;;;;4.50;2.85;;;;;;;;;;4973870;28;21311;-86
2023/07/12 00:44:11;;;;;;;4.43;2.70;;;;;;;;;;4978915;28;20065;-86
2023/07/12 00:46:47;;;;;;;9.48;2.72;;;;;;;;;;4973159;28;20033;-86
2023/07/12 00:49:14;;;;;;;5.53;3.20;;;;;;;;;;4961230;28;20032;-87
2023/07/12 00:51:48;;;;;;;7.90;3.45;;;;;;;;;;4969486;28;20035;-86
2023/07/12 00:54:16;;;;;;;6.78;2.80;;;;;;;;;;4970246;28;21175;-87
2023/07/12 00:56:43;;;;;;;5.82;2.75;;;;;;;;;;4954761;28;20066;-86
2023/07/12 00:59:27;;;;;;;7.30;3.22;;;;;;;;;;4960864;28;20097;-86
2023/07/12 01:01:58;;;;;;;6.95;2.65;;;;;;;;;;4976862;28;20027;-87
2023/07/12 01:04:32;;;;;;;6.70;3.20;;;;;;;;;;4958828;28;20031;-85
2023/07/12 01:06:59;;;;;;;4.68;2.63;;;;;;;;;;4970062;28;20042;-85
2023/07/12 01:09:29;;;;;;;9.82;2.78;;;;;;;;;;4973709;28;20030;-86
2023/07/12 01:11:57;;;;;;;6.40;2.92;;;;;;;;;;4976359;28;20061;-86
2023/07/12 01:14:23;;;;;;;8.25;2.60;;;;;;;;;;4944354;28;20034;-85
2023/07/12 01:16:53;;;;;;;7.05;2.97;;;;;;;;;;4940654;28;20035;-86
2023/07/12 01:19:21;;;;;;;6.07;3.10;;;;;;;;;;4976166;28;20106;-86
2023/07/12 01:21:48;;;;;;;6.93;2.92;;;;;;;;;;4963208;28;20038;-86
2023/07/12 01:24:15;;;;;;;4.72;2.42;;;;;;;;;;4978413;28;20050;-85
2023/07/12 01:26:43;;;;;;;10.70;3.03;;;;;;;;;;4981837;28;20403;-86
2023/07/12 01:29:14;;;;;;;11.63;2.88;;;;;;;;;;4963558;28;20022;-85
2023/07/12 01:31:42;;;;;;;11.68;3.63;;;;;;;;;;4965911;28;20035;-86
2023/07/12 01:34:17;;;;;;;8.82;2.80;;;;;;;;;;4963210;28;20518;-86
2023/07/12 01:36:48;;;;;;;4.82;2.83;;;;;;;;;;4982210;28;20033;-86
2023/07/12 01:39:14;;;;;;;9.88;3.45;;;;;;;;;;4976717;28;20038;-86
2023/07/12 01:41:51;;;;;;;8.25;2.80;;;;;;;;;;4964094;28;20082;-85
2023/07/12 01:44:18;;;;;;;7.68;3.15;;;;;;;;;;4978031;28;20038;-85
2023/07/12 01:46:45;;;;;;;8.48;3.40;;;;;;;;;;4949109;28;20098;-85
2023/07/12 01:49:15;;;;;;;7.53;3.00;;;;;;;;;;4952191;28;20043;-86
2023/07/12 01:51:46;;;;;;;7.13;3.30;;;;;;;;;;4965133;28;20047;-86
2023/07/12 01:54:17;;;;;;;7.10;3.28;;;;;;;;;;4960292;28;20039;-86
2023/07/12 01:56:43;;;;;;;7.88;3.72;;;;;;;;;;4960622;28;20027;-86
2023/07/12 01:59:15;;;;;;;12.55;3.45;;;;;;;;;;4964600;28;20046;-84
2023/07/12 02:01:48;;;;;;;7.30;3.25;;;;;;;;;;4960970;28;20110;-85
2023/07/12 02:04:17;;;;;;;10.88;4.13;;;;;;;;;;4963499;28;20109;-86
2023/07/12 02:06:45;;;;;;;5.32;3.40;;;;;;;;;;4959061;28;20137;-86
2023/07/12 02:12:33;;;;;;;9.45;3.30;;;;;;;;;;4925602;29;20052;-86
2023/07/12 02:15:03;;;;;;;8.27;3.58;;;;;;;;;;4940816;28;20263;-86
2023/07/12 02:17:39;;;;;;;13.23;3.78;;;;;;;;;;4961689;28;20656;-86
2023/07/12 02:20:05;;;;;;;;;;;;;;;;;;4961268;28;20050;-85
2023/07/12 02:22:44;;;;;;;;;;;;;;;;;;;;;
2023/07/12 02:25:15;;;;;;;6.45;3.63;;;;;;;;;;4977538;28;20632;-86
2023/07/12 02:27:51;;;;;;;9.10;3.13;;;;;;;;;;4979385;28;20391;-86
2023/07/12 02:30:17;;;;;;;;;;;;;;;;;;4961633;28;20038;-85
2023/07/12 02:32:44;;;;;;;12.90;4.22;;;;;;;;;;4961345;28;19982;-86
2023/07/12 02:35:16;;;;;;;12.57;4.47;;;;;;;;;;4960620;28;20412;-86
2023/07/12 02:37:42;;;;;;;8.18;4.45;;;;;;;;;;4960658;28;20038;-86
2023/07/12 02:40:11;;;;;;;12.25;4.85;;;;;;;;;;4961049;28;20031;-86
2023/07/12 02:42:38;;;;;;;9.30;4.75;;;;;;;;;;4961682;28;20445;-84
2023/07/12 02:45:05;;;;;;;13.57;5.10;;;;;;;;;;4962694;28;20027;-85
2023/07/12 02:47:32;;;;;;;16.80;5.05;;;;;;;;;;4945065;28;20054;-86
2023/07/12 02:49:59;;;;;;;7.82;4.25;;;;;;;;;;4946446;28;20027;-86
2023/07/12 02:52:32;;;;;;;16.27;4.47;;;;;;;;;;4965150;28;20031;-86
2023/07/12 02:55:03;;;;;;;11.63;3.80;;;;;;;;;;4953959;28;20026;-85
2023/07/12 02:57:30;;;;;;;14.85;4.78;;;;;;;;;;4976942;28;20112;-86
2023/07/12 03:00:06;;;;;;;16.65;5.43;;;;;;;;;;4963531;28;20042;-88
2023/07/12 03:02:34;;;;;;;18.15;4.68;;;;;;;;;;4960054;28;20035;-87
2023/07/12 03:05:00;;;;;;;16.17;4.50;;;;;;;;;;4961522;28;20038;-87
2023/07/12 03:07:31;;;;;;;10.20;4.28;;;;;;;;;;4978657;28;20038;-88
2023/07/12 03:09:57;;;;;;;11.05;4.32;;;;;;;;;;4964075;28;20578;-86
2023/07/12 03:12:25;;;;;;;10.02;3.88;;;;;;;;;;4963742;28;20035;-86
2023/07/12 03:14:54;;;;;;;23.90;5.00;;;;;;;;;;4945723;28;20175;-86
2023/07/12 03:17:21;;;;;;;21.52;4.80;;;;;;;;;;4949007;28;20050;-85
2023/07/12 03:19:48;;;;;;;13.65;4.32;;;;;;;;;;4965453;28;20509;-86
2023/07/12 03:22:18;;;;;;;23.58;5.72;;;;;;;;;;4959498;28;20043;-84
2023/07/12 03:24:46;;;;;;;11.55;4.97;;;;;;;;;;4964230;28;20513;-85
2023/07/12 03:27:12;;;;;;;10.20;4.05;;;;;;;;;;4947288;28;20038;-86
2023/07/12 03:29:38;;;;;;;20.00;5.20;;;;;;;;;;4941392;28;20041;-85
2023/07/12 03:32:06;;;;;;;19.10;4.00;;;;;;;;;;4976850;28;20030;-86
2023/07/12 03:34:37;;;;;;;8.18;3.88;;;;;;;;;;4977302;28;20031;-85
2023/07/12 03:37:15;;;;;;;;;;;;;;;;;;;;;
2023/07/12 03:39:43;;;;;;;12.93;3.95;;;;;;;;;;4975901;28;20827;-85
2023/07/12 03:42:10;;;;;;;22.60;5.07;;;;;;;;;;4975207;28;20041;-85
2023/07/12 03:44:54;;;;;;;15.45;4.22;;;;;;;;;;4974090;28;20027;-86
2023/07/12 03:47:21;;;;;;;19.42;5.43;;;;;;;;;;4943075;28;20034;-85
2023/07/12 03:49:47;;;;;;;16.17;4.78;;;;;;;;;;4977409;28;20041;-86
2023/07/12 03:52:15;;;;;;;29.10;6.70;;;;;;;;;;4960749;28;20034;-85
2023/07/12 03:54:45;;;;;;;20.55;4.88;;;;;;;;;;4943115;28;20043;-86
2023/07/12 03:57:12;;;;;;;19.33;5.57;;;;;;;;;;4949099;28;20034;-85
2023/07/12 03:59:39;;;;;;;19.20;5.68;;;;;;;;;;4947236;28;20038;-85
2023/07/12 04:02:06;;;;;;;18.95;5.93;;;;;;;;;;4944778;28;20100;-85
2023/07/12 04:04:35;;;;;;;18.50;4.68;;;;;;;;;;4959276;28;20027;-85
2023/07/12 04:07:05;;;;;;;15.10;4.47;;;;;;;;;;4978007;28;20030;-85
2023/07/12 04:09:46;;;;;;;13.27;5.03;;;;;;;;;;4957818;28;20035;-85
2023/07/12 04:12:17;;;;;;;20.48;5.10;;;;;;;;;;4959793;28;20042;-85
2023/07/12 04:14:46;;;;;;;15.27;5.18;;;;;;;;;;4963856;28;20046;-85
2023/07/12 04:17:16;;;;;;;13.73;4.07;;;;;;;;;;4948935;28;20030;-86
2023/07/12 04:19:44;;;;;;;18.48;5.45;;;;;;;;;;4960122;28;20038;-85
2023/07/12 04:22:10;;;;;;;23.83;4.63;;;;;;;;;;4961284;28;20399;-85
2023/07/12 04:24:37;;;;;;;21.10;5.07;;;;;;;;;;4957742;28;20055;-86
2023/07/12 04:27:12;;;;;;;13.98;3.85;;;;;;;;;;4961239;28;20527;-86
2023/07/12 04:29:39;;;;;;;19.00;5.30;;;;;;;;;;4962313;28;20038;-85
2023/07/12 04:32:06;;;;;;;14.95;4.70;;;;;;;;;;4941855;28;20043;-85
2023/07/12 04:34:36;;;;;;;18.98;5.13;;;;;;;;;;4954087;28;20035;-85
2023/07/12 04:37:02;;;;;;;27.25;5.30;;;;;;;;;;4945818;28;20034;-84
2023/07/12 04:39:34;;;;;;;18.33;5.05;;;;;;;;;;4972407;28;20035;-85
2023/07/12 04:42:00;;;;;;;22.63;5.28;;;;;;;;;;4948081;28;20030;-86
2023/07/12 04:44:28;;;;;;;21.63;4.38;;;;;;;;;;4949222;28;20045;-85
2023/07/12 04:46:55;;;;;;;13.63;5.25;;;;;;;;;;4960991;28;20030;-85
2023/07/12 04:49:43;;;;;;;22.88;4.82;;;;;;;;;;4947809;28;20037;-84
2023/07/12 04:52:12;;;;;;;26.02;4.95;;;;;;;;;;4972032;28;20031;-85
2023/07/12 04:54:39;;;;;;;23.55;4.70;;;;;;;;;;4958192;28;20045;-84
2023/07/12 04:57:13;;;;;;;16.13;5.30;;;;;;;;;;4955627;28;20071;-85
2023/07/12 04:59:42;;;;;;;16.95;4.20;;;;;;;;;;4950571;28;20062;-84
2023/07/12 05:02:08;;;;;;;15.00;4.72;;;;;;;;;;4967552;28;20054;-84
2023/07/12 05:04:35;;;;;;;23.90;5.25;;;;;;;;;;4963291;28;20031;-83
2023/07/12 05:07:09;;;;;;;23.33;5.65;;;;;;;;;;4959936;28;20162;-85
2023/07/12 05:09:37;;;;;;;;;;;;;;;;;;4980695;28;20041;-86
2023/07/12 05:12:08;;;;;;;17.40;5.57;;;;;;;;;;4970142;28;19989;-85
2023/07/12 05:14:34;;;;;;;18.33;5.57;;;;;;;;;;4962406;28;20043;-85
2023/07/12 05:17:04;;;;;;;12.88;4.95;;;;;;;;;;4972448;28;20038;-85
2023/07/12 05:19:48;;;;;;;16.33;4.47;;;;;;;;;;4953330;28;20027;-85
2023/07/12 05:22:15;;;;;;;17.95;5.05;;;;;;;;;;4963972;28;20023;-85
2023/07/12 05:24:48;;;;;;;17.92;6.43;;;;;;;;;;4971112;28;20027;-86
2023/07/12 05:27:15;;;;;;;17.00;5.25;;;;;;;;;;4968042;28;20066;-85
2023/07/12 05:29:44;;;;;;;17.40;5.03;;;;;;;;;;4962370;28;20030;-86
2023/07/12 05:32:11;;;;;;;16.33;4.88;;;;;;;;;;4942304;29;20040;-85
2023/07/12 05:37:45;;;;;;;16.13;4.63;;;;;;;;;;4940129;29;20054;-85
2023/07/12 05:40:16;;;;;;;27.25;5.25;;;;;;;;;;4956146;29;20062;-87
2023/07/12 05:42:53;;;;;;;16.50;4.32;;;;;;;;;;4939116;29;20125;-85
2023/07/12 05:51:39;;;;;;;14.27;4.50;;;;;;;;;;4886420;29;20106;-85
2023/07/12 05:54:29;;;;;;;17.38;5.45;;;;;;;;;;4935032;28;20040;-86
2023/07/12 05:56:59;;;;;;;19.02;4.90;;;;;;;;;;4946829;29;20131;-86
2023/07/12 05:59:38;;;;;;;19.73;3.97;;;;;;;;;;4947750;29;20020;-96
2023/07/12 06:02:16;;;;;;;20.80;4.93;;;;;;;;;;4928276;29;20065;-89
2023/07/12 06:04:45;;;;;;;19.85;5.40;;;;;;;;;;4914556;29;20035;-86
2023/07/12 06:07:13;;;;;;;17.00;6.65;;;;;;;;;;4943478;29;20036;-87
2023/07/12 06:09:52;;;;;;;21.23;5.53;;;;;;;;;;4962550;28;20098;-89
2023/07/12 06:12:36;;;;;;;18.10;5.03;;;;;;;;;;4987690;28;20035;-87
2023/07/12 06:15:27;;;;;;;11.90;5.00;;;;;;;;;;4985510;28;20047;-88
2023/07/12 06:20:57;;;;;;;5.28;2.70;;;;;;;;;;4988656;28;20065;-88
2023/07/12 06:23:42;;;;;;;12.45;5.28;;;;;;;;;;4988093;28;20062;-87
2023/07/12 06:26:09;;;;;;;23.60;5.15;;;;;;;;;;4976076;28;20054;-87
2023/07/12 06:28:40;;;;;;;12.68;3.28;;;;;;;;;;4970745;28;20054;-88
2023/07/12 06:34:17;;;;;;;20.67;5.82;;;;;;;;;;4926605;29;20092;-87
2023/07/12 06:37:15;;;;;;;19.38;5.43;;;;;;;;;;4917837;29;20021;-86
2023/07/12 06:39:49;;;;;;;14.90;4.43;;;;;;;;;;4970416;28;20094;-86
2023/07/12 06:42:15;;;;;;;10.98;4.43;;;;;;;;;;4966750;28;20078;-87
2023/07/12 06:44:41;;;;;;;14.90;5.35;;;;;;;;;;4966904;28;20047;-87
2023/07/12 06:47:07;;;;;;;11.02;4.43;;;;;;;;;;4955151;28;20050;-87
2023/07/12 06:49:34;;;;;;;20.83;3.72;;;;;;;;;;4967265;28;20047;-87
2023/07/12 06:52:03;;;;;;;14.68;4.25;;;;;;;;;;4964176;28;20038;-86
2023/07/12 06:54:35;;;;;;;11.50;4.70;;;;;;;;;;4954156;28;20066;-86
2023/07/12 06:57:06;;;;;;;17.85;5.07;;;;;;;;;;4950021;28;20400;-86
2023/07/12 06:59:37;;;;;;;18.02;5.00;;;;;;;;;;4966401;28;20092;-87
2023/07/12 07:02:48;;;;;;;;;;;;;;;;;;;;;
2023/07/12 07:05:06;;;;;;;18.45;4.63;;;;;;;;;;4978966;28;20135;-87
2023/07/12 07:07:42;;;;;;;18.67;7.13;;;;;;;;;;4962053;28;20058;-88
2023/07/12 07:12:57;;;;;;;22.65;4.57;;;;;;;;;;4962837;28;20042;-86
2023/07/12 07:15:29;;;;;;;16.60;4.45;;;;;;;;;;4965484;28;20054;-85
2023/07/12 07:17:59;;;;;;;19.90;4.30;;;;;;;;;;4962041;28;20066;-87
2023/07/12 07:20:36;;;;;;;15.43;3.85;;;;;;;;;;4967018;28;20038;-88
2023/07/12 07:23:16;;;;;;;13.23;3.70;;;;;;;;;;4963567;28;20105;-88
2023/07/12 07:25:54;;;;;;;14.63;3.70;;;;;;;;;;4953068;28;20031;-86
2023/07/12 07:28:23;;;;;;;15.20;3.90;;;;;;;;;;4983407;28;20042;-87
2023/07/12 07:30:55;;;;;;;11.52;3.97;;;;;;;;;;4967262;28;20042;-86
2023/07/12 07:33:22;;;;;;;16.50;3.90;;;;;;;;;;4982025;28;20030;-86
2023/07/12 07:35:53;;;;;;;16.98;4.45;;;;;;;;;;4975996;28;20376;-87
2023/07/12 07:38:47;;;;;;;4.85;1.95;;;;;;;;;;4974201;28;20380;-87
2023/07/12 07:41:16;;;;;;;16.05;3.42;;;;;;;;;;4982280;28;20034;-87
2023/07/12 07:43:45;;;;;;;19.70;4.68;;;;;;;;;;4975778;28;20118;-87
2023/07/12 07:46:18;;;;;;;11.32;4.13;;;;;;;;;;4969553;28;20074;-86
2023/07/12 07:48:50;;;;;;;28.55;4.47;;;;;;;;;;4949482;28;20051;-84
2023/07/12 07:51:27;;;;;;;12.95;3.28;;;;;;;;;;4975896;28;20035;-86
2023/07/12 07:53:53;;;;;;;18.83;3.75;;;;;;;;;;4964564;28;20055;-86
2023/07/12 07:56:27;;;;;;;15.85;3.25;;;;;;;;;;4972639;28;20046;-87
2023/07/12 07:59:00;;;;;;;12.82;2.60;;;;;;;;;;4941760;28;20066;-86
2023/07/12 08:01:33;;;;;;;14.70;4.15;;;;;;;;;;5121615;23;20063;-91
2023/07/12 08:04:00;;;;;;;12.52;3.42;;;;;;;;;;4939407;29;20031;-92
2023/07/12 08:06:49;;;;;;;9.02;2.22;;;;;;;;;;4940561;28;20039;-90
2023/07/12 08:09:15;;;;;;;6.93;3.15;;;;;;;;;;4927652;29;20431;-91
2023/07/12 08:12:02;;;;;;;10.75;3.03;;;;;;;;;;4954635;28;20058;-90
2023/07/12 08:14:28;;;;;;;11.35;3.33;;;;;;;;;;4937296;28;20067;-90
2023/07/12 08:17:07;;;;;;;9.57;3.58;;;;;;;;;;4939346;28;20027;-90
2023/07/12 08:19:34;;;;;;;9.90;2.78;;;;;;;;;;4923379;29;20608;-90
2023/07/12 08:22:02;;;;;;;22.27;2.75;;;;;;;;;;4924001;29;20442;-90
2023/07/12 08:24:31;;;;;;;14.15;3.38;;;;;;;;;;4926345;29;20042;-90
2023/07/12 08:27:01;;;;;;;12.07;3.35;;;;;;;;;;4923262;29;20035;-92
2023/07/12 08:29:32;;;;;;;8.55;2.95;;;;;;;;;;4935545;28;20038;-91
2023/07/12 08:32:12;;;;;;;9.05;2.85;;;;;;;;;;4938691;29;20055;-91
2023/07/12 08:34:39;;;;;;;6.63;2.65;;;;;;;;;;4952256;28;20097;-92
2023/07/12 08:40:34;;;;;;;6.65;2.25;;;;;;;;;;4944198;28;20063;-91
2023/07/12 08:43:19;;;;;;;7.43;2.72;;;;;;;;;;4931480;29;20062;-91
2023/07/12 08:45:56;;;;;;;12.80;3.15;;;;;;;;;;4937492;28;20090;-91
2023/07/12 08:48:25;;;;;;;9.48;2.05;;;;;;;;;;4936616;29;20043;-92
2023/07/12 08:50:52;;;;;;;8.73;2.72;;;;;;;;;;4932347;29;20418;-91
2023/07/12 08:53:27;;;;;;;10.07;2.35;;;;;;;;;;4919957;29;20028;-91
2023/07/12 08:56:00;;;;;;;8.40;2.67;;;;;;;;;;4920497;29;20035;-90
2023/07/12 08:58:53;;;;;;;9.85;2.65;;;;;;;;;;4915854;29;20493;-91
2023/07/12 09:01:39;;;;;;;12.52;3.03;;;;;;;;;;4908378;29;20067;-91
2023/07/12 09:04:21;;;;;;;11.73;3.50;;;;;;;;;;4906941;29;20037;-91
2023/07/12 09:06:50;;;;;;;14.95;3.28;;;;;;;;;;4913317;29;20320;-91
2023/07/12 09:09:20;;;;;;;9.90;3.78;;;;;;;;;;4908815;29;20032;-92
2023/07/12 09:11:49;;;;;;;12.20;3.63;;;;;;;;;;4916980;29;20051;-90
2023/07/12 09:14:40;;;;;;;;;;;;;;;;;;;;;
2023/07/12 09:17:35;;;;;;;11.57;3.30;;;;;;;;;;4925363;29;20088;-89
2023/07/12 09:20:25;;;;;;;7.53;2.55;;;;;;;;;;4918951;29;20040;-91
2023/07/12 09:23:34;;;;;;;;;;;;;;;;;;;;;
2023/07/12 09:26:48;;;;;;;;;;;;;;;;;;;;;
2023/07/12 09:32:37;;;;;;;8.50;4.53;;;;;;;;;;4920262;29;20531;-91
2023/07/12 09:36:00;;;;;;;8.30;2.20;;;;;;;;;;4906539;29;20148;-90
2023/07/12 09:38:23;;;;;;;6.95;2.70;;;;;;;;;;4913470;29;20167;-91
2023/07/12 09:40:54;;;;;;;6.20;2.95;;;;;;;;;;4888925;29;20100;-90
2023/07/12 09:43:26;;;;;;;9.82;2.22;;;;;;;;;;4883345;29;20056;-91
2023/07/12 09:46:17;;;;;;;4.60;2.38;;;;;;;;;;4889179;29;20035;-91
2023/07/12 09:48:54;;;;;;;14.00;3.10;;;;;;;;;;4894491;28;20203;-91
2023/07/12 09:58:02;;;;;;;10.38;2.97;;;;;;;;;;4910544;29;20083;-90
2023/07/12 10:00:56;;;;;;;6.88;2.30;;;;;;;;;;4887823;29;20052;-91
2023/07/12 10:03:43;;;;;;;10.05;2.65;;;;;;;;;;4894973;28;20446;-90
2023/07/12 10:06:23;;;;;;;9.80;2.90;;;;;;;;;;4819123;29;20042;-90
2023/07/12 10:08:58;;;;;;;10.95;2.55;;;;;;;;;;4897563;29;20047;-90
2023/07/12 10:11:51;;;;;;;7.18;2.00;;;;;;;;;;4944227;29;20053;-90
2023/07/12 10:14:19;;;;;;;14.13;3.08;;;;;;;;;;4893780;29;20059;-91
2023/07/12 10:20:00;;;;;;;11.88;2.38;;;;;;;;;;4915296;29;20105;-91
2023/07/12 10:25:57;;;;;;;9.35;2.22;;;;;;;;;;4867981;29;20041;-92
2023/07/12 10:31:20;;;;;;;7.05;2.22;;;;;;;;;;4869419;29;20056;-92
2023/07/12 20:42:37;;;;;;;5.03;1.70;;;;;;;;;;4839640;29;20313;-96
2023/07/12 20:45:27;;;;;;;8.88;1.83;;;;;;;;;;4838683;29;20014;-96
2023/07/12 20:47:54;;;;;;;7.28;1.50;;;;;;;;;;4841483;29;20038;-96
2023/07/12 20:50:23;;;;;;;4.18;1.70;;;;;;;;;;4838827;29;20034;-96
2023/07/12 20:52:59;;;;;;;5.82;2.30;;;;;;;;;;4847638;29;20061;-96
2023/07/12 20:55:34;;;;;;;;;;;;;;;;;;4833274;29;20029;-96
2023/07/12 20:58:07;;;;;;;2.75;1.80;;;;;;;;;;4854513;29;19937;-96
2023/07/12 21:00:35;;;;;;;4.75;2.03;;;;;;;;;;4854148;29;20038;-96
2023/07/12 21:03:05;;;;;;;7.57;2.05;;;;;;;;;;4856009;29;20022;-96
2023/07/12 21:06:02;;;;;;;3.55;2.08;;;;;;;;;;4853544;29;20034;-96
2023/07/12 21:08:36;;;;;;;6.50;2.30;;;;;;;;;;4855502;29;20042;-96
2023/07/12 21:11:06;;;;;;;9.02;2.30;;;;;;;;;;4838273;29;20054;-96
2023/07/12 21:14:02;;;;;;;6.60;2.22;;;;;;;;;;4860440;29;20054;-96
2023/07/12 21:16:33;;;;;;;8.15;1.40;;;;;;;;;;4851996;29;20042;-96
2023/07/12 21:19:15;;;;;;;7.47;2.00;;;;;;;;;;4854498;29;20046;-96
2023/07/12 22:25:29;;;;;;;10.13;2.25;;;;;;;;;;965820;23;20332;-90
2023/07/12 22:28:04;;;;;;;7.55;2.55;;;;;;;;;;4887265;29;20072;-91
2023/07/12 22:30:36;;;;;;;11.82;2.72;;;;;;;;;;4870384;29;20052;-90
2023/07/12 22:33:04;;;;;;;9.18;2.50;;;;;;;;;;4885160;29;20127;-91
2023/07/12 22:35:37;;;;;;;6.28;2.95;;;;;;;;;;4897030;29;20092;-91
2023/07/12 22:38:07;;;;;;;12.20;3.00;;;;;;;;;;4867696;29;20040;-92
2023/07/12 22:40:34;;;;;;;10.60;2.55;;;;;;;;;;4879118;29;20041;-91
2023/07/12 22:43:00;;;;;;;8.02;2.50;;;;;;;;;;4885212;29;20040;-92
2023/07/12 22:45:27;;;;;;;7.45;2.47;;;;;;;;;;4879349;29;20612;-92
2023/07/12 22:47:54;;;;;;;11.30;2.28;;;;;;;;;;4880498;29;20028;-92
2023/07/12 22:50:21;;;;;;;6.75;2.03;;;;;;;;;;4868085;29;20713;-91
2023/07/12 22:52:55;;;;;;;7.95;2.28;;;;;;;;;;4886336;29;20032;-92
2023/07/12 22:55:22;;;;;;;14.40;2.55;;;;;;;;;;4866813;29;20173;-91
2023/07/12 22:57:49;;;;;;;9.90;2.75;;;;;;;;;;4869495;29;20037;-91
2023/07/12 23:00:24;;;;;;;15.48;3.05;;;;;;;;;;4868108;29;20068;-92
2023/07/12 23:02:51;;;;;;;16.98;2.75;;;;;;;;;;4883444;29;20032;-91
2023/07/12 23:05:24;;;;;;;9.15;2.30;;;;;;;;;;4881783;29;20029;-90
2023/07/12 23:07:51;;;;;;;10.27;2.55;;;;;;;;;;4879208;29;20283;-91
2023/07/12 23:10:19;;;;;;;12.50;2.95;;;;;;;;;;4865354;29;20036;-91
2023/07/12 23:12:58;;;;;;;12.18;3.28;;;;;;;;;;4876567;29;20108;-92
2023/07/12 23:15:28;;;;;;;6.07;1.33;;;;;;;;;;4886443;29;20028;-91
2023/07/12 23:17:55;;;;;;;18.63;3.05;;;;;;;;;;4880738;29;20037;-91
2023/07/12 23:20:21;;;;;;;11.77;2.45;;;;;;;;;;4881867;29;20045;-92
2023/07/12 23:23:04;;;;;;;10.95;3.15;;;;;;;;;;4861777;29;20037;-91
2023/07/12 23:25:31;;;;;;;12.18;3.88;;;;;;;;;;4884515;29;20063;-91
2023/07/12 23:27:58;;;;;;;15.60;3.03;;;;;;;;;;4867925;29;20073;-92
2023/07/12 23:30:28;;;;;;;12.75;2.72;;;;;;;;;;4867800;29;20409;-92
2023/07/12 23:32:58;;;;;;;9.82;3.13;;;;;;;;;;4878749;29;20524;-91
2023/07/12 23:35:25;;;;;;;12.90;2.78;;;;;;;;;;4861532;29;20140;-91
2023/07/12 23:37:55;;;;;;;14.27;3.20;;;;;;;;;;4882025;29;20045;-91
2023/07/12 23:40:23;;;;;;;10.50;4.13;;;;;;;;;;4866069;29;20041;-92
2023/07/12 23:42:52;;;;;;;15.98;2.50;;;;;;;;;;4870263;29;20071;-92
2023/07/12 23:45:23;;;;;;;17.75;2.80;;;;;;;;;;4882577;29;20037;-91
2023/07/12 23:47:52;;;;;;;10.07;2.72;;;;;;;;;;4886937;29;20226;-91
2023/07/12 23:50:22;;;;;;;9.55;2.60;;;;;;;;;;4882858;29;20040;-91
2023/07/12 23:52:49;;;;;;;12.40;3.08;;;;;;;;;;4866532;29;20041;-92
2023/07/12 23:55:41;;;;;;;11.25;3.15;;;;;;;;;;4881854;29;20033;-92
2023/07/12 23:58:11;;;;;;;9.60;2.70;;;;;;;;;;4875876;29;20056;-91
